Flight Track Log - Related Links

Times and Time Zones

All times are in EDT time to prevent confusion due to time zone crossing. See the EJA396 flight status page for this flight to view local times or setup timezone preferences in your user account.

Time Position Orientation Groundspeed Altitude Reporting Facility
EDT Latitude Longitude Course Direction KTS MPH feet Rate Location/Type
Sat 01:51:42 PM 38.0000 -84.6461 184° South 227 261 3,400  Level Indianapolis Center
Sat 01:52:44 PM 37.9333 -84.6525 184° South 241 277 8,500 3,366 Climbing Indianapolis Center
Sat 01:53:45 PM 37.8647 -84.6917 204° Southwest 306 352 10,300 3,366 Climbing Indianapolis Center
Sat 01:54:47 PM 37.8428 -84.8264 258° West 330 380 15,400 4,244 Climbing Indianapolis Center
Sat 01:55:48 PM 37.8167 -84.9339 253° West 323 372 19,000 2,976 Climbing Indianapolis Center
Sat 01:56:50 PM 37.7894 -85.0467 253° West 332 382 21,500 2,146 Climbing Indianapolis Center
Sat 01:57:51 PM 37.7583 -85.1744 253° West 371 427 23,400 1,902 Climbing Indianapolis Center
Sat 01:58:53 PM 37.7222 -85.3158 252° West 413 475 25,400 1,951 Climbing Indianapolis Center
Sat 01:59:54 PM 37.6856 -85.4614 252° West 429 494 27,400 2,098 Climbing Indianapolis Center
Sat 02:00:56 PM 37.6508 -85.6344 256° West 445 512 29,700 2,081 Climbing Indianapolis Center
Sat 02:01:58 PM 37.6219 -85.7867 257° West 445 512 31,700 1,951 Climbing Indianapolis Center
Sat 02:02:59 PM 37.5942 -85.9408 257° West 447 514 33,700 1,122 Climbing Indianapolis Center
Sat 02:04:01 PM 37.5636 -86.0986 256° West 457 526 34,000 145 Climbing Indianapolis Center
Sat 02:05:03 PM 37.5328 -86.2578 256° West 489 563 34,000  Level Indianapolis Center
Sat 02:06:04 PM 37.4956 -86.4519 256° West 488 562 34,000  Level Indianapolis Center
Sat 02:07:06 PM 37.4633 -86.6189 256° West 488 562 34,000  Level Indianapolis Center
Sat 02:08:07 PM 37.4308 -86.7836 256° West 485 558 34,000  Level Indianapolis Center
Sat 02:09:09 PM 37.3983 -86.9506 256° West 487 560 34,000  Level Indianapolis Center
Sat 02:10:10 PM 37.3653 -87.1181 256° West 490 564 34,000  Level Indianapolis Center
Sat 02:11:12 PM 37.3322 -87.2839 256° West 488 562 34,000  Level Indianapolis Center
Sat 02:12:14 PM 37.2975 -87.4525 256° West 494 568 34,000  Level Indianapolis Center
Sat 02:13:15 PM 37.2628 -87.6222 256° West 498 573 34,000  Level Indianapolis Center
Sat 02:13:55 PM 37.2417 -87.7383 257° West 499 574 34,000  Level Memphis Center
Sat 02:14:55 PM 37.2056 -87.9064 255° West 494 568 34,000  Level Memphis Center
Sat 02:15:55 PM 37.1753 -88.0686 257° West 494 568 34,000  Level Memphis Center
Sat 02:16:55 PM 37.1386 -88.2361 255° West 494 568 34,000  Level Memphis Center
Sat 02:17:55 PM 37.1039 -88.4011 255° West 494 568 34,000  Level Memphis Center
Sat 02:18:56 PM 37.0689 -88.5656 255° West 494 568 34,000  Level Memphis Center
Sat 02:19:55 PM 37.0336 -88.7275 255° West 494 568 34,000  Level Memphis Center
Sat 02:20:55 PM 37.0006 -88.9100 257° West 494 568 34,000  Level Memphis Center
Sat 02:21:55 PM 36.9772 -89.0767 260° West 494 568 34,000  Level Memphis Center
Sat 02:22:55 PM 36.9539 -89.2406 260° West 489 563 34,000  Level Memphis Center
Sat 02:23:55 PM 36.9325 -89.4069 261° West 489 563 34,000  Level Memphis Center
Sat 02:24:55 PM 36.9086 -89.5733 260° West 489 563 34,000  Level Memphis Center
Sat 02:25:55 PM 36.8825 -89.7369 259° West 484 557 34,000  Level Memphis Center
Sat 02:26:55 PM 36.8603 -89.9006 260° West 484 557 34,000  Level Memphis Center
Sat 02:27:55 PM 36.8336 -90.0639 259° West 484 557 34,000  Level Memphis Center
Sat 02:28:55 PM 36.8089 -90.2325 260° West 489 563 34,000  Level Memphis Center
Sat 02:29:55 PM 36.7839 -90.3958 259° West 489 563 34,000  Level Memphis Center
Sat 02:30:55 PM 36.7567 -90.5642 259° West 489 563 34,000  Level Memphis Center
Sat 02:31:55 PM 36.7314 -90.7272 259° West 489 563 34,000  Level Memphis Center
Sat 02:32:55 PM 36.7036 -90.8875 258° West 489 563 34,000  Level Memphis Center
Sat 02:33:55 PM 36.6800 -91.0503 260° West 489 563 34,000  Level Memphis Center
Sat 02:34:55 PM 36.6583 -91.1897 259° West 482 555 34,000  Level Memphis Center
Sat 02:35:55 PM 36.6300 -91.3628 259° West 472 543 34,000  Level Memphis Center
Sat 02:36:55 PM 36.6078 -91.5150 260° West 461 531 34,000  Level Memphis Center
Sat 02:37:55 PM 36.5811 -91.6697 258° West 461 531 34,000  Level Memphis Center
Sat 02:38:55 PM 36.5567 -91.8192 259° West 456 525 34,000  Level Memphis Center
Sat 02:39:55 PM 36.5319 -91.9683 258° West 451 519 34,000  Level Memphis Center
Sat 02:40:55 PM 36.5047 -92.1203 257° West 451 519 34,000  Level Memphis Center
Sat 02:41:55 PM 36.4817 -92.2667 259° West 446 513 34,000  Level Memphis Center
Sat 02:42:56 PM 36.4608 -92.3981 259° West 439 505 34,000 -250 Level Memphis Center
Sat 02:43:55 PM 36.4333 -92.5519 258° West 450 518 33,500 -1,714 Descending Memphis Center
Sat 02:44:55 PM 36.4078 -92.6906 257° West 445 512 30,600 -2,950 Descending Memphis Center
Sat 02:45:55 PM 36.3819 -92.8394 258° West 440 506 27,600 -2,800 Descending Memphis Center
Sat 02:46:55 PM 36.3583 -92.9828 258° West 435 501 25,000 -2,550 Descending Memphis Center
Sat 02:47:55 PM 36.3322 -93.1236 257° West 425 489 22,500 -2,500 Descending Memphis Center
Sat 02:48:55 PM 36.3147 -93.2597 261° West 418 481 20,000 -2,400 Descending Memphis Center
Sat 02:49:55 PM 36.3117 -93.3883 268° West 397 457 17,700 -2,350 Descending Memphis Center
Sat 02:50:55 PM 36.3106 -93.5144 269° West 380 437 15,300 -2,200 Descending Memphis Center
Sat 02:51:55 PM 36.3217 -93.6436 276° West 375 432 13,300 -2,100 Descending Memphis Center
Sat 02:52:55 PM 36.3328 -93.7756 276° West 363 418 11,100 -2,100 Descending Memphis Center
Sat 02:53:55 PM 36.3444 -93.8792 278° West 338 389 9,100 -2,050 Descending Memphis Center
Sat 02:54:55 PM 36.3544 -93.9722 278° West 303 349 7,000 -2,050 Descending Memphis Center
Sat 02:55:55 PM 36.3600 -94.0653 274° West 281 323 5,000 -1,500 Descending Memphis Center
Sat 02:56:55 PM 36.3658 -94.1506 275° West 268 308 4,000 -850 Descending Memphis Center
Sat 02:57:55 PM 36.3675 -94.2253 272° West 249 287 3,300 -500 Descending Memphis Center
Sat 02:58:55 PM 36.3717 -94.2953 274° West 224 258 3,000 -248 Descending Memphis Center
Sat 02:59:56 PM 36.3600 -94.3358 250° West 149 171 2,800 -450 Descending Memphis Center
Sat 03:00:55 PM 36.3308 -94.3319 174° South 100 115 2,100 -555 Descending Memphis Center
Sat 03:01:55 PM 36.3097 -94.3411 199° South 95 109 1,700 -400 Descending Memphis Center

Login

Don't have an account? Register now (free) for customized features, flight alerts, and more!